createdAt,value
2022-09-06T00:00:20.309Z,9.70
2022-09-06T00:02:25.264Z,9.60
2022-09-06T00:04:30.693Z,10.70
2022-09-06T00:06:35.538Z,9.70
2022-09-06T00:08:40.806Z,9.10
2022-09-06T00:10:45.581Z,10.40
2022-09-06T00:12:50.252Z,10.90
2022-09-06T00:14:55.095Z,10.10
2022-09-06T00:17:00.588Z,9.50
2022-09-06T00:19:05.332Z,9.70
2022-09-06T00:21:18.368Z,9.90
2022-09-06T00:23:23.083Z,10.20
2022-09-06T00:25:28.209Z,10.30
2022-09-06T00:27:33.377Z,9.70
2022-09-06T00:29:38.076Z,10.60
2022-09-06T00:31:42.887Z,9.80
2022-09-06T00:33:48.038Z,10.50
2022-09-06T00:36:00.087Z,10.80
2022-09-06T00:38:04.835Z,10.00
2022-09-06T00:40:11.289Z,11.20
2022-09-06T00:42:16.127Z,10.70
2022-09-06T00:44:20.865Z,10.90
2022-09-06T00:46:28.139Z,10.00
2022-09-06T00:48:33.326Z,9.20
2022-09-06T00:50:38.788Z,10.10
2022-09-06T00:52:45.587Z,10.30
2022-09-06T00:54:52.768Z,9.80
2022-09-06T00:56:58.321Z,10.90
2022-09-06T00:59:03.361Z,9.30
2022-09-06T01:01:08.178Z,10.10
2022-09-06T01:03:13.801Z,9.40
2022-09-06T01:05:20.371Z,10.90
2022-09-06T01:07:36.008Z,10.10
2022-09-06T01:09:56.851Z,10.30
2022-09-06T01:12:26.576Z,10.10
2022-09-06T01:14:43.429Z,10.40
2022-09-06T01:16:57.636Z,10.90
2022-09-06T01:19:27.430Z,10.40
2022-09-06T01:21:45.413Z,10.80
2022-09-06T01:24:11.697Z,10.70
2022-09-06T01:26:36.759Z,10.50
2022-09-06T01:28:43.882Z,9.50
2022-09-06T01:30:52.220Z,10.20
2022-09-06T01:33:07.059Z,9.80
2022-09-06T01:35:20.358Z,10.50
2022-09-06T01:37:25.730Z,9.60
2022-09-06T01:39:33.591Z,9.80
2022-09-06T01:41:38.539Z,11.50
2022-09-06T01:43:47.951Z,9.60
2022-09-06T01:46:01.936Z,10.30
2022-09-06T01:48:15.882Z,9.60
2022-09-06T01:50:42.457Z,10.00
2022-09-06T01:52:57.459Z,9.90
2022-09-06T01:55:17.907Z,9.50
2022-09-06T01:57:36.029Z,10.00
2022-09-06T02:00:05.728Z,10.60
2022-09-06T02:02:24.748Z,10.50
2022-09-06T02:04:33.963Z,10.80
2022-09-06T02:06:43.957Z,11.10
2022-09-06T02:08:53.529Z,9.30
2022-09-06T02:11:02.279Z,10.00
2022-09-06T02:13:09.782Z,11.90
2022-09-06T02:15:19.790Z,9.70
2022-09-06T02:17:30.438Z,10.10
2022-09-06T02:19:39.856Z,9.60
2022-09-06T02:21:47.452Z,9.20
2022-09-06T02:23:54.122Z,11.30
2022-09-06T02:26:05.006Z,13.90
2022-09-06T02:28:10.906Z,11.20
2022-09-06T02:30:15.998Z,10.10
2022-09-06T02:32:22.971Z,10.50
2022-09-06T02:34:27.725Z,11.40
2022-09-06T02:36:32.962Z,10.90
2022-09-06T02:38:40.458Z,10.10
2022-09-06T02:40:46.490Z,11.40
2022-09-06T02:42:51.474Z,10.00
2022-09-06T02:44:56.152Z,10.50
2022-09-06T02:47:00.967Z,10.40
2022-09-06T02:49:05.987Z,10.80
2022-09-06T02:51:10.992Z,9.30
2022-09-06T02:53:16.888Z,9.90
2022-09-06T02:55:21.646Z,11.00
2022-09-06T02:57:26.403Z,11.40
2022-09-06T02:59:31.114Z,12.30
2022-09-06T03:01:36.188Z,13.20
2022-09-06T03:03:41.085Z,10.10
2022-09-06T03:05:48.591Z,10.70
2022-09-06T03:07:53.891Z,11.40
2022-09-06T03:09:58.508Z,9.80
2022-09-06T03:12:03.644Z,10.60
2022-09-06T03:14:08.367Z,11.40
2022-09-06T03:16:13.083Z,11.60
2022-09-06T03:18:17.930Z,10.70
2022-09-06T03:20:22.704Z,11.00
2022-09-06T03:22:30.451Z,10.20
2022-09-06T03:24:35.188Z,11.80
2022-09-06T03:26:40.053Z,11.00
2022-09-06T03:28:44.845Z,10.70
2022-09-06T03:30:51.482Z,12.20
2022-09-06T03:32:57.010Z,10.70
2022-09-06T03:35:03.976Z,10.80
2022-09-06T03:37:10.128Z,10.80
2022-09-06T03:39:14.808Z,10.60
2022-09-06T03:41:19.617Z,11.30
2022-09-06T03:43:25.856Z,11.00
2022-09-06T03:45:30.601Z,11.50
2022-09-06T03:47:35.406Z,12.10
2022-09-06T03:49:42.805Z,10.30
2022-09-06T03:51:47.829Z,10.60
2022-09-06T03:53:52.698Z,11.10
2022-09-06T03:55:58.470Z,10.50
2022-09-06T03:58:03.249Z,10.70
2022-09-06T04:00:09.894Z,10.50
2022-09-06T04:02:17.619Z,11.60
2022-09-06T04:04:22.440Z,10.40
2022-09-06T04:06:27.254Z,10.80
2022-09-06T04:08:32.713Z,11.60
2022-09-06T04:10:37.419Z,11.90
2022-09-06T04:12:42.101Z,10.90
2022-09-06T04:14:46.964Z,10.50
2022-09-06T04:16:51.998Z,11.70
2022-09-06T04:18:56.746Z,11.50
2022-09-06T04:21:01.550Z,11.70
2022-09-06T04:23:06.309Z,10.70
2022-09-06T04:25:11.976Z,10.10
2022-09-06T04:27:16.677Z,10.30
2022-09-06T04:29:21.385Z,11.40
2022-09-06T04:31:26.110Z,12.00
2022-09-06T04:33:32.933Z,10.80
2022-09-06T04:35:37.733Z,12.10
2022-09-06T04:37:42.521Z,10.80
2022-09-06T04:39:47.358Z,10.90
2022-09-06T04:41:52.129Z,11.20
2022-09-06T04:43:57.160Z,10.60
2022-09-06T04:46:07.375Z,11.90
2022-09-06T04:48:12.562Z,10.90
2022-09-06T04:50:17.562Z,11.30
2022-09-06T04:52:27.054Z,11.00
2022-09-06T04:54:35.307Z,11.50
2022-09-06T04:56:40.128Z,11.60
2022-09-06T04:58:46.033Z,11.90
2022-09-06T05:00:51.264Z,10.40
2022-09-06T05:02:56.644Z,10.70
2022-09-06T05:05:01.549Z,13.40
2022-09-06T05:07:07.976Z,10.50
2022-09-06T05:09:12.976Z,11.80
2022-09-06T05:11:18.385Z,11.50
2022-09-06T05:13:23.257Z,10.90
2022-09-06T05:15:28.109Z,12.50
2022-09-06T05:17:33.470Z,11.90
2022-09-06T05:19:38.153Z,12.40
2022-09-06T05:21:42.862Z,12.10
2022-09-06T05:23:47.699Z,12.60
2022-09-06T05:25:52.939Z,11.70
2022-09-06T05:27:57.842Z,11.50
2022-09-06T05:30:02.832Z,13.50
2022-09-06T05:32:07.848Z,12.90
2022-09-06T05:34:12.759Z,12.20
2022-09-06T05:36:17.475Z,10.90
2022-09-06T05:38:22.150Z,11.00
2022-09-06T05:40:26.915Z,12.00
2022-09-06T05:42:31.523Z,11.90
2022-09-06T05:44:36.974Z,11.00
2022-09-06T05:46:44.897Z,11.10
2022-09-06T05:48:55.589Z,12.00
2022-09-06T05:51:05.073Z,10.30
2022-09-06T05:53:09.941Z,12.50
2022-09-06T05:55:15.048Z,12.90
2022-09-06T05:57:20.065Z,12.50
2022-09-06T05:59:25.129Z,12.50
2022-09-06T06:01:31.335Z,12.00
2022-09-06T06:03:36.182Z,11.80
2022-09-06T06:05:40.911Z,11.10
2022-09-06T06:07:45.615Z,11.20
2022-09-06T06:09:50.269Z,12.20
2022-09-06T06:11:54.977Z,11.70
2022-09-06T06:13:59.656Z,12.40
2022-09-06T06:16:05.138Z,11.50
2022-09-06T06:18:09.861Z,11.60
2022-09-06T06:20:14.672Z,11.10
2022-09-06T06:22:19.340Z,10.80
2022-09-06T06:24:24.669Z,12.40
2022-09-06T06:26:31.241Z,11.80
2022-09-06T06:28:36.472Z,12.40
2022-09-06T06:30:41.423Z,11.80
2022-09-06T06:32:46.089Z,13.00
2022-09-06T06:34:50.784Z,11.50
2022-09-06T06:36:55.589Z,12.70
2022-09-06T06:39:00.989Z,14.70
2022-09-06T06:41:07.416Z,11.50
2022-09-06T06:43:12.118Z,12.00
2022-09-06T06:45:16.939Z,14.50
2022-09-06T06:47:21.708Z,12.30
2022-09-06T06:49:26.885Z,12.00
2022-09-06T06:51:34.976Z,12.50
2022-09-06T06:53:39.718Z,13.10
2022-09-06T06:55:48.800Z,12.60
2022-09-06T06:57:53.495Z,11.80
2022-09-06T06:59:58.219Z,12.00
2022-09-06T07:02:02.990Z,13.00
2022-09-06T07:04:07.847Z,11.20
2022-09-06T07:06:13.375Z,12.20
2022-09-06T07:08:18.318Z,13.20
2022-09-06T07:10:38.301Z,14.50
2022-09-06T07:12:43.015Z,12.00
2022-09-06T07:14:47.717Z,14.00
2022-09-06T07:16:52.410Z,12.90
2022-09-06T07:18:57.180Z,13.00
2022-09-06T07:25:51.615Z,14.60
2022-09-06T07:28:03.897Z,12.00
2022-09-06T07:30:13.368Z,13.20
2022-09-06T07:32:18.046Z,13.00
2022-09-06T07:34:23.016Z,13.00
2022-09-06T07:36:27.809Z,11.50
2022-09-06T07:38:33.606Z,13.70
2022-09-06T07:40:38.435Z,13.20
2022-09-06T07:42:43.168Z,14.00
2022-09-06T07:44:47.832Z,12.20
2022-09-06T07:46:52.840Z,14.90
2022-09-06T07:48:57.732Z,13.70
2022-09-06T07:51:08.182Z,12.00
2022-09-06T07:53:16.610Z,13.10
2022-09-06T07:55:24.238Z,16.70
2022-09-06T07:57:29.139Z,17.20
2022-09-06T07:59:33.948Z,16.80
2022-09-06T08:01:39.733Z,14.80
2022-09-06T08:03:45.157Z,14.10
2022-09-06T08:10:37.812Z,13.60
2022-09-06T08:12:42.533Z,13.10
2022-09-06T08:14:47.259Z,12.80
2022-09-06T08:16:52.031Z,15.90
2022-09-06T08:18:58.966Z,12.50
2022-09-06T08:21:12.898Z,12.30
2022-09-06T08:23:17.973Z,16.00
2022-09-06T08:25:22.724Z,13.30
2022-09-06T08:27:27.423Z,12.50
2022-09-06T08:29:32.193Z,15.60
2022-09-06T08:31:38.568Z,13.00
2022-09-06T08:33:46.599Z,15.60
2022-09-06T08:35:58.207Z,14.50
2022-09-06T08:38:02.940Z,14.10
2022-09-06T08:40:09.088Z,12.90
2022-09-06T08:42:14.397Z,13.30
2022-09-06T08:46:55.772Z,13.00
2022-09-06T08:49:00.681Z,13.60
2022-09-06T08:51:22.488Z,14.20
2022-09-06T08:53:27.839Z,13.10
2022-09-06T08:55:41.029Z,13.10
2022-09-06T08:57:59.011Z,12.70
2022-09-06T09:00:11.029Z,12.20
2022-09-06T09:02:20.179Z,12.90
2022-09-06T09:04:28.798Z,14.40
2022-09-06T09:06:34.925Z,13.20
2022-09-06T09:08:47.744Z,13.60
2022-09-06T09:10:59.082Z,12.90
2022-09-06T09:13:07.602Z,11.80
2022-09-06T09:15:14.969Z,13.50
2022-09-06T09:17:25.883Z,12.10
2022-09-06T09:19:30.664Z,13.90
2022-09-06T09:21:39.101Z,13.00
2022-09-06T09:23:45.956Z,14.70
2022-09-06T09:25:52.603Z,14.90
2022-09-06T09:27:57.842Z,13.60
2022-09-06T09:32:35.229Z,14.10
2022-09-06T09:34:40.741Z,12.20
2022-09-06T09:39:14.151Z,13.50
2022-09-06T09:41:30.450Z,12.70
2022-09-06T09:43:38.407Z,13.20
2022-09-06T09:45:43.633Z,13.00
2022-09-06T09:47:49.798Z,15.50
2022-09-06T09:49:54.467Z,14.80
2022-09-06T09:52:10.666Z,14.10
2022-09-06T09:54:30.034Z,14.90
2022-09-06T09:56:45.389Z,12.50
2022-09-06T09:58:50.275Z,14.10
2022-09-06T10:01:12.251Z,14.90
2022-09-06T10:03:31.229Z,17.30
2022-09-06T10:05:39.525Z,17.40
2022-09-06T10:07:46.975Z,15.60
2022-09-06T10:10:00.715Z,14.80
2022-09-06T10:12:06.442Z,15.60
2022-09-06T10:14:26.166Z,13.30
2022-09-06T10:16:44.661Z,16.00
2022-09-06T10:18:49.418Z,14.40
2022-09-06T10:20:58.068Z,14.30
2022-09-06T10:23:10.414Z,14.40
2022-09-06T10:25:46.390Z,15.00
2022-09-06T10:28:12.102Z,14.20
2022-09-06T10:30:17.258Z,14.20
2022-09-06T10:32:39.629Z,17.00
2022-09-06T10:34:59.803Z,12.90
2022-09-06T10:37:16.446Z,14.40
2022-09-06T10:39:40.013Z,15.60
2022-09-06T10:41:58.535Z,14.40
2022-09-06T10:44:15.109Z,15.90
2022-09-06T10:46:25.314Z,13.80
2022-09-06T10:48:32.545Z,17.20
2022-09-06T10:50:45.782Z,17.30
2022-09-06T10:52:53.487Z,15.90
2022-09-06T10:55:02.518Z,17.20
2022-09-06T10:59:47.557Z,16.70
2022-09-06T11:02:08.717Z,15.50
2022-09-06T11:04:20.612Z,15.80
2022-09-06T11:06:31.626Z,17.10
2022-09-06T11:08:46.798Z,17.00
2022-09-06T11:10:53.377Z,13.60
2022-09-06T11:13:03.638Z,14.90
2022-09-06T11:15:12.326Z,13.60
2022-09-06T11:17:28.393Z,14.40
2022-09-06T11:19:40.135Z,13.60
2022-09-06T11:22:05.949Z,13.50
2022-09-06T11:24:14.826Z,13.10
2022-09-06T11:26:34.159Z,14.10
2022-09-06T11:28:43.897Z,15.50
2022-09-06T11:30:53.444Z,13.30
2022-09-06T11:33:12.470Z,13.50
2022-09-06T11:35:26.767Z,13.90
2022-09-06T11:37:34.876Z,13.90
2022-09-06T11:42:30.362Z,13.50
2022-09-06T11:44:53.764Z,16.90
2022-09-06T11:47:02.344Z,15.60
2022-09-06T11:49:08.621Z,16.40
2022-09-06T11:51:30.642Z,13.70
2022-09-06T11:53:56.470Z,12.60
2022-09-06T11:56:25.868Z,11.40
2022-09-06T11:58:33.964Z,12.20
2022-09-06T12:00:38.653Z,14.00
2022-09-06T12:02:43.957Z,13.10
2022-09-06T12:05:10.437Z,12.20
2022-09-06T12:07:15.208Z,12.60
2022-09-06T12:09:32.040Z,12.70
2022-09-06T12:11:42.476Z,10.80
2022-09-06T12:13:55.912Z,12.80
2022-09-06T12:16:01.085Z,13.60
2022-09-06T12:18:05.829Z,12.70
2022-09-06T12:20:10.558Z,13.20
2022-09-06T12:23:01.354Z,12.50
2022-09-06T12:25:18.875Z,12.50
2022-09-06T12:27:25.400Z,12.50
2022-09-06T12:29:31.123Z,14.70
2022-09-06T12:31:39.564Z,14.10
2022-09-06T12:33:44.518Z,11.80
2022-09-06T12:35:57.374Z,15.40
2022-09-06T12:38:04.240Z,14.40
2022-09-06T12:40:11.635Z,13.60
2022-09-06T12:42:16.463Z,12.20
2022-09-06T12:44:29.118Z,11.20
2022-09-06T12:46:34.562Z,11.90
2022-09-06T12:48:39.375Z,12.10
2022-09-06T12:50:44.116Z,12.10
2022-09-06T12:52:51.205Z,12.10
2022-09-06T12:54:55.953Z,11.90
2022-09-06T12:57:14.167Z,13.30
2022-09-06T12:59:21.405Z,12.90
2022-09-06T13:01:32.379Z,12.50
2022-09-06T13:03:41.068Z,12.60
2022-09-06T13:05:46.678Z,12.30
2022-09-06T13:07:53.982Z,12.40
2022-09-06T13:09:59.017Z,13.40
2022-09-06T13:12:08.847Z,11.60
2022-09-06T13:14:17.636Z,14.40
2022-09-06T13:16:36.984Z,12.70
2022-09-06T13:18:41.810Z,10.70
2022-09-06T13:20:57.135Z,11.90
2022-09-06T13:23:10.379Z,10.40
2022-09-06T13:25:25.838Z,10.70
2022-09-06T13:27:36.504Z,11.50
2022-09-06T13:29:54.142Z,11.60
2022-09-06T13:32:01.379Z,10.50
2022-09-06T13:34:06.596Z,10.70
2022-09-06T13:36:21.879Z,11.40
2022-09-06T13:38:38.578Z,12.10
2022-09-06T13:41:09.747Z,13.80
2022-09-06T13:43:11.435Z,12.80
2022-09-06T13:45:25.166Z,12.50
2022-09-06T13:47:33.609Z,11.00
2022-09-06T13:49:38.307Z,11.30
2022-09-06T13:51:46.611Z,11.60
2022-09-06T13:53:51.976Z,11.70
2022-09-06T13:55:56.642Z,11.50
2022-09-06T13:58:02.741Z,12.10
2022-09-06T14:00:10.169Z,11.60
2022-09-06T14:02:15.624Z,12.10
2022-09-06T14:04:21.995Z,13.00
2022-09-06T14:06:26.899Z,12.80
2022-09-06T14:08:55.747Z,12.00
2022-09-06T14:10:56.846Z,10.50
2022-09-06T14:13:01.552Z,11.00
2022-09-06T14:15:08.342Z,11.40
2022-09-06T14:17:13.070Z,11.20
2022-09-06T14:19:17.913Z,11.10
2022-09-06T14:21:22.828Z,11.30
2022-09-06T14:23:28.116Z,10.10
2022-09-06T14:25:34.139Z,10.00
2022-09-06T14:27:38.836Z,11.70
2022-09-06T14:29:43.557Z,15.40
2022-09-06T14:31:48.300Z,10.20
2022-09-06T14:33:53.495Z,11.00
2022-09-06T14:35:58.197Z,11.10
2022-09-06T14:38:02.979Z,12.20
2022-09-06T14:40:09.570Z,11.80
2022-09-06T14:42:14.363Z,10.00
2022-09-06T14:44:19.324Z,12.00
2022-09-06T14:46:25.857Z,11.70
2022-09-06T14:48:30.820Z,12.40
2022-09-06T14:50:36.302Z,12.80
2022-09-06T14:52:41.019Z,10.70
2022-09-06T14:54:46.102Z,11.80
2022-09-06T14:56:50.813Z,9.80
2022-09-06T14:58:56.495Z,11.90
2022-09-06T15:01:10.235Z,11.80
2022-09-06T15:03:15.029Z,12.80
2022-09-06T15:05:19.817Z,10.70
2022-09-06T15:07:24.578Z,11.60
2022-09-06T15:09:29.389Z,11.30
2022-09-06T15:11:35.760Z,10.60
2022-09-06T15:13:41.567Z,11.50
2022-09-06T15:15:46.371Z,11.40
2022-09-06T15:17:51.167Z,10.90
2022-09-06T15:19:55.980Z,10.10
2022-09-06T15:22:00.914Z,10.40
2022-09-06T15:24:11.044Z,12.20
2022-09-06T15:26:16.703Z,10.80
2022-09-06T15:28:21.387Z,9.60
2022-09-06T15:30:26.126Z,10.80
2022-09-06T15:32:30.910Z,10.90
2022-09-06T15:34:35.619Z,12.20
2022-09-06T15:36:40.393Z,12.20
2022-09-06T15:38:46.771Z,13.90
2022-09-06T15:40:51.682Z,13.70
2022-09-06T15:42:56.483Z,13.60
2022-09-06T15:45:01.320Z,12.80
2022-09-06T15:47:06.221Z,11.90
2022-09-06T15:49:13.231Z,11.20
2022-09-06T15:51:20.179Z,11.70
2022-09-06T15:53:25.131Z,10.60
2022-09-06T15:55:31.920Z,11.30
2022-09-06T15:57:36.665Z,11.30
2022-09-06T15:59:42.226Z,15.20
2022-09-06T16:01:46.976Z,12.20
2022-09-06T16:03:53.305Z,18.10
2022-09-06T16:08:27.133Z,11.30
2022-09-06T16:10:32.046Z,11.00
2022-09-06T16:12:36.795Z,11.60
2022-09-06T16:14:41.634Z,11.10
2022-09-06T16:16:46.727Z,12.00
2022-09-06T16:18:51.768Z,11.20
2022-09-06T16:20:56.526Z,12.10
2022-09-06T16:23:01.289Z,12.20
2022-09-06T16:25:07.308Z,13.40
2022-09-06T16:27:12.250Z,9.70
2022-09-06T16:29:18.361Z,10.80
2022-09-06T16:31:24.169Z,12.30
2022-09-06T16:33:29.269Z,13.70
2022-09-06T16:35:34.049Z,12.10
2022-09-06T16:37:41.568Z,12.80
2022-09-06T16:39:46.301Z,13.00
2022-09-06T16:41:50.961Z,11.90
2022-09-06T16:43:55.695Z,12.20
2022-09-06T16:46:01.605Z,9.90
2022-09-06T16:48:07.635Z,11.00
2022-09-06T16:50:12.510Z,10.50
2022-09-06T16:52:17.283Z,11.70
2022-09-06T16:54:22.429Z,9.90
2022-09-06T16:56:28.920Z,10.80
2022-09-06T16:58:33.704Z,11.50
2022-09-06T17:00:41.012Z,9.20
2022-09-06T17:02:47.196Z,8.30
2022-09-06T17:04:52.072Z,8.10
2022-09-06T17:06:56.792Z,10.00
2022-09-06T17:09:01.746Z,10.80
2022-09-06T17:11:08.627Z,8.00
2022-09-06T17:13:13.974Z,8.50
2022-09-06T17:15:21.876Z,8.90
2022-09-06T17:17:26.715Z,9.30
2022-09-06T17:19:33.877Z,9.00
2022-09-06T17:21:38.808Z,9.10
2022-09-06T17:23:43.680Z,9.10
2022-09-06T17:25:48.505Z,9.30
2022-09-06T17:27:53.358Z,10.20
2022-09-06T17:29:58.288Z,10.00
2022-09-06T17:32:03.586Z,9.50
2022-09-06T17:34:08.654Z,9.10
2022-09-06T17:36:15.555Z,11.20
2022-09-06T17:38:20.366Z,10.40
2022-09-06T17:40:25.331Z,9.70
2022-09-06T17:42:30.396Z,8.30
2022-09-06T17:44:35.614Z,9.70
2022-09-06T17:46:52.002Z,8.20
2022-09-06T17:49:02.455Z,7.70
2022-09-06T17:51:10.614Z,9.10
2022-09-06T17:53:15.471Z,10.10
2022-09-06T17:55:20.337Z,8.60
2022-09-06T17:57:25.265Z,9.80
2022-09-06T17:59:34.835Z,7.30
2022-09-06T18:01:41.858Z,8.90
2022-09-06T18:03:46.978Z,9.60
2022-09-06T18:05:52.025Z,8.10
2022-09-06T18:07:57.058Z,7.20
2022-09-06T18:10:02.095Z,8.00
2022-09-06T18:12:07.289Z,8.20
2022-09-06T18:14:14.205Z,7.70
2022-09-06T18:16:19.491Z,8.00
2022-09-06T18:18:24.851Z,7.80
2022-09-06T18:20:30.127Z,7.30
2022-09-06T18:22:35.414Z,7.30
2022-09-06T18:24:40.489Z,7.10
2022-09-06T18:26:46.196Z,7.40
2022-09-06T18:28:51.883Z,7.50
2022-09-06T18:31:00.200Z,7.50
2022-09-06T18:33:05.523Z,7.70
2022-09-06T18:35:13.937Z,8.00
2022-09-06T18:37:19.508Z,8.30
2022-09-06T18:39:24.703Z,8.10
2022-09-06T18:41:30.210Z,8.90
2022-09-06T18:43:37.239Z,8.30
2022-09-06T18:45:42.461Z,8.50
2022-09-06T18:47:47.427Z,6.90
2022-09-06T18:49:52.510Z,8.50
2022-09-06T18:51:57.687Z,7.70
2022-09-06T18:54:06.468Z,7.90
2022-09-06T18:56:12.721Z,7.50
2022-09-06T18:58:17.837Z,6.70
2022-09-06T19:00:23.064Z,7.90
2022-09-06T19:02:28.432Z,8.20
2022-09-06T19:04:34.108Z,8.00
2022-09-06T19:06:41.072Z,8.10
2022-09-06T19:08:47.037Z,7.80
2022-09-06T19:11:00.751Z,9.10
2022-09-06T19:13:06.140Z,9.70
2022-09-06T19:15:12.605Z,8.40
2022-09-06T19:17:18.036Z,8.40
2022-09-06T19:19:23.853Z,9.10
2022-09-06T19:21:29.649Z,7.80
2022-09-06T19:23:36.462Z,8.20
2022-09-06T19:25:41.248Z,7.50
2022-09-06T19:27:48.813Z,8.00
2022-09-06T19:29:54.363Z,8.00
2022-09-06T19:31:59.741Z,8.70
2022-09-06T19:34:05.476Z,7.80
2022-09-06T19:36:12.527Z,7.60
2022-09-06T19:38:18.143Z,9.00
2022-09-06T19:40:23.373Z,8.50
2022-09-06T19:42:28.510Z,7.10
2022-09-06T19:44:33.736Z,7.70
2022-09-06T19:46:40.936Z,7.90
2022-09-06T19:48:49.609Z,8.00
2022-09-06T19:50:54.675Z,9.10
2022-09-06T19:53:01.469Z,8.20
2022-09-06T19:55:10.469Z,7.80
2022-09-06T19:57:15.193Z,8.30
2022-09-06T19:59:20.316Z,7.70
2022-09-06T20:01:26.610Z,8.30
2022-09-06T20:03:31.809Z,8.80
2022-09-06T20:05:39.722Z,9.40
2022-09-06T20:07:44.846Z,9.00
2022-09-06T20:09:52.492Z,7.80
2022-09-06T20:11:57.839Z,8.30
2022-09-06T20:14:03.443Z,8.40
2022-09-06T20:16:10.291Z,8.70
2022-09-06T20:18:15.783Z,7.90
2022-09-06T20:20:21.196Z,9.00
2022-09-06T20:22:26.719Z,8.70
2022-09-06T20:24:31.853Z,8.00
2022-09-06T20:26:37.266Z,8.00
2022-09-06T20:28:42.526Z,8.20
2022-09-06T20:30:47.569Z,7.60
2022-09-06T20:32:52.765Z,9.30
2022-09-06T20:34:57.902Z,7.80
2022-09-06T20:37:02.969Z,9.00
2022-09-06T20:39:08.162Z,7.70
2022-09-06T20:41:15.295Z,9.20
2022-09-06T20:43:20.383Z,7.80
2022-09-06T20:45:25.652Z,7.90
2022-09-06T20:47:31.451Z,8.10
2022-09-06T20:49:36.527Z,8.00
2022-09-06T20:51:42.049Z,8.20
2022-09-06T20:53:48.907Z,8.90
2022-09-06T20:56:01.883Z,8.20
2022-09-06T20:58:07.063Z,9.50
2022-09-06T21:00:14.556Z,7.30
2022-09-06T21:02:19.470Z,10.30
2022-09-06T21:04:24.618Z,7.50
2022-09-06T21:06:31.551Z,7.60
2022-09-06T21:08:41.878Z,8.00
2022-09-06T21:10:47.316Z,7.70
2022-09-06T21:12:52.094Z,9.20
2022-09-06T21:14:56.853Z,7.50
2022-09-06T21:17:01.563Z,7.30
2022-09-06T21:19:10.862Z,6.80
2022-09-06T21:21:15.592Z,7.20
2022-09-06T21:23:20.256Z,7.60
2022-09-06T21:25:25.067Z,7.20
2022-09-06T21:27:29.780Z,7.60
2022-09-06T21:29:34.614Z,7.40
2022-09-06T21:31:39.440Z,7.90
2022-09-06T21:33:46.616Z,7.00
2022-09-06T21:35:51.403Z,7.80
2022-09-06T21:37:56.161Z,9.20
2022-09-06T21:40:00.839Z,8.40
2022-09-06T21:42:06.103Z,7.10
2022-09-06T21:44:11.133Z,8.30
2022-09-06T21:46:17.937Z,7.70
2022-09-06T21:48:22.651Z,7.40
2022-09-06T21:50:27.329Z,7.30
2022-09-06T21:52:31.936Z,7.60
2022-09-06T21:54:36.678Z,13.10
2022-09-06T21:56:41.509Z,14.40
2022-09-06T21:58:46.361Z,19.60
2022-09-06T22:00:55.972Z,9.50
2022-09-06T22:03:00.902Z,9.30
2022-09-06T22:05:06.117Z,10.10
2022-09-06T22:07:10.775Z,9.10
2022-09-06T22:09:15.668Z,6.70
2022-09-06T22:11:22.523Z,24.00
2022-09-06T22:13:27.243Z,9.80
2022-09-06T22:15:31.923Z,8.20
2022-09-06T22:17:36.898Z,10.10
2022-09-06T22:19:41.579Z,12.10
2022-09-06T22:21:46.338Z,8.90
2022-09-06T22:23:55.401Z,10.60
2022-09-06T22:26:06.143Z,6.90
2022-09-06T22:28:10.892Z,13.50
2022-09-06T22:30:16.107Z,11.00
2022-09-06T22:32:23.890Z,11.50
2022-09-06T22:34:28.739Z,13.90
2022-09-06T22:36:33.767Z,10.40
2022-09-06T22:38:38.506Z,11.40
2022-09-06T22:40:43.270Z,7.50
2022-09-06T22:42:48.010Z,9.60
2022-09-06T22:44:52.831Z,7.90
2022-09-06T22:46:58.123Z,8.20
2022-09-06T22:49:02.910Z,9.80
2022-09-06T22:51:07.789Z,7.00
2022-09-06T22:53:13.175Z,7.40
2022-09-06T22:55:18.080Z,7.90
2022-09-06T22:57:22.652Z,9.30
2022-09-06T22:59:27.367Z,8.50
2022-09-06T23:01:32.334Z,7.60
2022-09-06T23:03:37.681Z,9.00
2022-09-06T23:05:42.338Z,7.50
2022-09-06T23:07:47.005Z,8.60
2022-09-06T23:09:51.684Z,8.80
2022-09-06T23:11:56.398Z,9.20
2022-09-06T23:14:01.665Z,7.40
2022-09-06T23:16:08.119Z,7.70
2022-09-06T23:18:13.119Z,8.00
2022-09-06T23:20:17.918Z,8.60
2022-09-06T23:22:22.589Z,7.80
2022-09-06T23:24:27.377Z,8.10
2022-09-06T23:26:33.164Z,8.30
2022-09-06T23:28:38.151Z,7.70
2022-09-06T23:30:42.889Z,7.40
2022-09-06T23:32:47.660Z,8.70
2022-09-06T23:34:52.479Z,7.80
2022-09-06T23:36:57.222Z,8.10
2022-09-06T23:39:02.216Z,8.80
2022-09-06T23:41:07.640Z,8.10
2022-09-06T23:43:12.348Z,7.70
2022-09-06T23:45:17.101Z,8.30
2022-09-06T23:47:21.872Z,7.60
2022-09-06T23:49:26.577Z,7.80
2022-09-06T23:51:31.283Z,7.80
2022-09-06T23:53:35.974Z,8.20
2022-09-06T23:55:40.857Z,7.50
2022-09-06T23:57:45.617Z,7.80
2022-09-06T23:59:50.321Z,7.50
